Time;durP1;ratioP1;P1;durP2;ratioP2;P2;SDS_P1;SDS_P2;PMS_P1;PMS_P2;Temp;Humidity;BMP_temperature;BMP_pressure;BME280_temperature;BME280_humidity;BME280_pressure;Samples;Min_cycle;Max_cycle;Signal;HPM_P1;HPM_P2
2022/07/25 00:01:56;;;;;;;7.90;2.65;;;;;;;22.21;45.60;100954.50;5064912;28;20049;-75
2022/07/25 00:04:24;;;;;;;3.83;2.60;;;;;;;22.60;44.51;100957.81;5068493;28;20049;-75
2022/07/25 00:06:51;;;;;;;3.55;2.40;;;;;;;21.97;45.73;100951.56;5065883;28;20041;-75
2022/07/25 00:09:17;;;;;;;3.03;2.42;;;;;;;22.20;46.78;100945.69;5065967;28;20500;-75
2022/07/25 00:11:43;;;;;;;8.10;2.88;;;;;;;22.38;45.21;100950.22;5067398;28;20044;-75
2022/07/25 00:14:10;;;;;;;6.95;2.70;;;;;;;22.24;46.57;100946.22;5050860;28;20087;-75
2022/07/25 00:16:36;;;;;;;3.83;2.67;;;;;;;21.99;47.01;100936.25;5045736;28;20100;-75
2022/07/25 00:19:03;;;;;;;5.28;2.58;;;;;;;21.54;47.47;100941.44;5082942;28;20048;-75
2022/07/25 00:21:31;;;;;;;7.55;2.70;;;;;;;21.85;47.57;100932.19;5062368;28;20467;-75
2022/07/25 00:23:57;;;;;;;6.15;2.75;;;;;;;21.79;47.88;100932.78;5066455;28;20565;-75
2022/07/25 00:26:24;;;;;;;6.05;2.60;;;;;;;22.04;46.90;100932.13;5066768;28;20049;-75
2022/07/25 00:28:50;;;;;;;3.03;2.30;;;;;;;21.70;48.31;100928.28;5066507;28;20048;-75
2022/07/25 00:31:16;;;;;;;5.35;2.80;;;;;;;21.44;48.84;100921.91;5067100;28;20048;-75
2022/07/25 00:33:43;;;;;;;3.72;2.20;;;;;;;21.50;48.55;100922.22;5066542;28;20068;-75
2022/07/25 00:36:09;;;;;;;5.10;2.70;;;;;;;21.10;49.68;100919.69;5065383;28;20041;-75
2022/07/25 00:38:37;;;;;;;8.27;3.00;;;;;;;21.30;49.35;100924.06;5067380;28;20495;-75
2022/07/25 00:41:04;;;;;;;4.55;2.33;;;;;;;21.38;49.89;100915.34;5065597;28;20048;-75
2022/07/25 00:43:31;;;;;;;7.53;2.70;;;;;;;21.49;49.52;100915.19;5066209;28;20045;-75
2022/07/25 00:45:58;;;;;;;4.20;2.63;;;;;;;21.24;50.20;100921.97;5067145;28;20048;-75
2022/07/25 00:48:24;;;;;;;6.50;2.47;;;;;;;20.97;51.32;100916.50;5061864;28;20036;-75
2022/07/25 00:50:50;;;;;;;4.35;2.85;;;;;;;21.11;49.99;100917.91;5058686;28;20110;-75
2022/07/25 00:53:17;;;;;;;3.72;2.45;;;;;;;21.12;50.53;100911.59;5061985;28;20090;-75
2022/07/25 00:55:46;;;;;;;5.22;2.55;;;;;;;21.29;49.38;100908.19;5055437;28;20052;-75
2022/07/25 00:58:13;;;;;;;4.47;2.67;;;;;;;20.75;50.87;100911.47;5065317;28;20273;-75
2022/07/25 01:00:40;;;;;;;4.97;2.67;;;;;;;20.71;50.90;100907.38;5067091;28;20056;-75
2022/07/25 01:03:06;;;;;;;5.00;2.90;;;;;;;20.45;52.00;100906.25;5064286;28;20048;-75
2022/07/25 01:05:33;;;;;;;4.22;2.83;;;;;;;20.53;51.70;100899.25;5065269;28;20734;-75
2022/07/25 01:07:59;;;;;;;6.00;3.05;;;;;;;20.55;51.73;100891.09;5048396;28;20694;-75
2022/07/25 01:10:26;;;;;;;4.60;2.85;;;;;;;20.42;52.64;100890.53;5058718;28;20404;-75
2022/07/25 01:12:55;;;;;;;3.42;2.67;;;;;;;20.12;53.07;100889.63;5065827;28;20098;-75
2022/07/25 01:15:23;;;;;;;3.55;2.65;;;;;;;20.02;53.54;100883.44;5066026;28;20459;-75
2022/07/25 01:17:50;;;;;;;5.82;2.83;;;;;;;20.21;52.88;100880.00;5061856;28;20138;-75
2022/07/25 01:20:19;;;;;;;5.57;2.78;;;;;;;19.94;53.72;100883.28;5064260;28;20504;-75
2022/07/25 01:22:46;;;;;;;4.75;2.90;;;;;;;20.04;54.20;100881.47;5063705;28;20454;-75
2022/07/25 01:25:14;;;;;;;6.95;2.88;;;;;;;20.23;53.47;100886.00;5066972;28;20097;-75
2022/07/25 01:27:41;;;;;;;6.28;3.33;;;;;;;20.53;51.71;100882.44;5055274;28;20049;-75
2022/07/25 01:30:10;;;;;;;6.95;2.90;;;;;;;20.61;51.44;100878.09;5064090;28;20066;-75
2022/07/25 01:32:37;;;;;;;5.03;2.92;;;;;;;20.61;51.71;100874.59;5066442;28;20048;-75
2022/07/25 01:35:04;;;;;;;4.85;3.00;;;;;;;20.21;52.10;100878.13;5045235;28;20049;-75
2022/07/25 01:37:32;;;;;;;6.55;2.97;;;;;;;20.51;51.48;100873.75;5065689;28;20459;-75
2022/07/25 01:39:58;;;;;;;5.53;2.60;;;;;;;20.34;52.49;100868.13;5050826;28;20488;-75
2022/07/25 01:42:25;;;;;;;4.22;2.80;;;;;;;20.56;51.63;100871.47;5064678;28;20040;-75
2022/07/25 01:44:51;;;;;;;4.28;2.80;;;;;;;20.65;51.56;100870.66;5064842;28;20718;-75
2022/07/25 01:47:18;;;;;;;4.43;2.83;;;;;;;20.53;52.11;100872.63;5065765;28;20098;-75
2022/07/25 01:49:44;;;;;;;4.32;2.70;;;;;;;20.44;52.44;100864.59;5064250;28;20090;-75
2022/07/25 01:52:11;;;;;;;5.65;2.72;;;;;;;20.40;51.56;100862.22;5064509;28;20101;-75
2022/07/25 01:54:40;;;;;;;4.80;2.83;;;;;;;20.03;53.62;100858.50;5066231;28;20045;-75
2022/07/25 01:57:07;;;;;;;5.22;2.90;;;;;;;20.15;53.09;100849.41;5064804;28;20036;-75
2022/07/25 01:59:36;;;;;;;5.85;2.90;;;;;;;19.97;53.65;100850.22;5064369;28;20040;-75
2022/07/25 02:02:03;;;;;;;6.68;3.03;;;;;;;19.70;55.03;100850.84;5064732;28;20048;-75
2022/07/25 02:04:29;;;;;;;6.22;2.97;;;;;;;19.42;55.56;100850.59;5051175;28;20136;-75
2022/07/25 02:06:56;;;;;;;5.65;2.83;;;;;;;19.40;55.78;100849.84;5050018;28;20075;-75
2022/07/25 02:09:23;;;;;;;4.10;2.67;;;;;;;19.40;55.79;100844.53;5057333;28;20041;-75
2022/07/25 02:11:50;;;;;;;5.50;3.03;;;;;;;19.36;55.90;100832.47;5063735;28;20052;-76
2022/07/25 02:14:17;;;;;;;6.60;2.72;;;;;;;19.54;55.07;100834.56;5062793;28;20466;-76
2022/07/25 02:16:43;;;;;;;4.25;2.95;;;;;;;19.42;55.24;100831.97;5056369;28;20041;-75
2022/07/25 02:19:10;;;;;;;5.50;3.00;;;;;;;19.70;54.65;100829.53;5063396;28;20060;-75
2022/07/25 02:21:36;;;;;;;4.95;3.00;;;;;;;19.42;55.63;100831.97;5062368;28;20114;-75
2022/07/25 02:24:03;;;;;;;5.05;2.88;;;;;;;19.14;56.45;100821.19;5064631;28;20040;-75
2022/07/25 02:26:29;;;;;;;6.97;3.13;;;;;;;19.21;56.59;100823.19;5064666;28;20106;-75
2022/07/25 02:28:57;;;;;;;7.82;2.83;;;;;;;19.38;56.17;100822.56;5062737;28;20098;-75
2022/07/25 02:31:23;;;;;;;5.30;3.00;;;;;;;19.42;56.31;100812.53;5065792;28;20044;-75
2022/07/25 02:33:49;;;;;;;5.38;3.00;;;;;;;19.30;56.64;100816.22;5062201;28;20576;-75
2022/07/25 02:36:16;;;;;;;4.50;2.88;;;;;;;19.31;56.41;100810.78;5053158;28;20048;-75
2022/07/25 02:38:42;;;;;;;4.82;2.67;;;;;;;19.06;57.24;100810.38;5057556;28;20041;-75
2022/07/25 02:41:08;;;;;;;6.13;3.00;;;;;;;19.04;57.48;100809.63;5046768;28;20415;-75
2022/07/25 02:43:35;;;;;;;5.72;3.10;;;;;;;19.11;56.99;100801.00;5051528;28;20057;-76
2022/07/25 02:46:03;;;;;;;6.40;2.80;;;;;;;19.02;57.97;100803.63;5049432;28;20045;-75
2022/07/25 02:48:29;;;;;;;4.45;2.85;;;;;;;18.90;58.16;100801.03;5070535;28;20053;-75
2022/07/25 02:50:56;;;;;;;5.40;3.10;;;;;;;19.00;57.33;100789.63;5053747;28;20492;-75
2022/07/25 02:53:22;;;;;;;4.30;2.95;;;;;;;19.26;56.74;100799.69;5052830;28;20574;-75
2022/07/25 02:55:49;;;;;;;6.38;2.92;;;;;;;19.58;55.67;100798.72;5056399;28;20564;-75
2022/07/25 02:58:15;;;;;;;5.15;3.00;;;;;;;19.88;54.58;100798.66;5060964;28;20072;-75
2022/07/25 03:00:41;;;;;;;5.43;2.95;;;;;;;19.78;55.07;100789.81;5052881;28;20564;-75
2022/07/25 03:03:09;;;;;;;5.93;3.10;;;;;;;20.00;53.86;100792.22;5064384;28;20052;-75
2022/07/25 03:05:35;;;;;;;6.63;3.20;;;;;;;20.01;53.81;100788.59;5080253;28;20059;-75
2022/07/25 03:08:02;;;;;;;5.38;3.30;;;;;;;19.98;54.28;100796.00;5064075;28;20162;-75
2022/07/25 03:10:29;;;;;;;5.40;2.90;;;;;;;20.06;53.71;100793.50;5062844;28;20487;-75
2022/07/25 03:12:55;;;;;;;7.50;2.92;;;;;;;19.98;54.47;100796.88;5061132;28;20041;-75
2022/07/25 03:15:21;;;;;;;4.10;2.90;;;;;;;20.00;53.60;100794.88;5078136;28;20044;-75
2022/07/25 03:17:48;;;;;;;4.53;3.17;;;;;;;19.84;54.29;100799.91;5076019;28;20049;-75
2022/07/25 03:20:15;;;;;;;3.85;2.90;;;;;;;19.65;55.01;100791.88;5066143;28;20098;-75
2022/07/25 03:22:42;;;;;;;5.03;2.88;;;;;;;19.60;55.43;100794.09;5053248;28;20036;-75
2022/07/25 03:25:08;;;;;;;5.55;3.33;;;;;;;19.48;55.46;100793.38;5061076;28;20101;-75
2022/07/25 03:27:35;;;;;;;3.78;3.20;;;;;;;19.66;54.75;100796.25;5063878;28;20048;-75
2022/07/25 03:30:01;;;;;;;5.40;3.38;;;;;;;19.63;55.24;100786.69;5049795;28;20447;-75
2022/07/25 03:32:28;;;;;;;6.13;2.90;;;;;;;19.73;54.70;100794.72;5043362;28;20107;-75
2022/07/25 03:34:54;;;;;;;5.50;2.78;;;;;;;19.68;55.21;100788.94;5057915;28;20048;-76
2022/07/25 03:37:22;;;;;;;4.07;2.97;;;;;;;19.67;55.28;100792.59;5074142;28;20422;-75
2022/07/25 03:39:48;;;;;;;4.63;3.15;;;;;;;19.77;55.74;100774.84;5042494;28;20049;-75
2022/07/25 03:42:15;;;;;;;5.10;3.03;;;;;;;19.85;55.29;100777.63;5040611;28;20037;-76
2022/07/25 03:44:41;;;;;;;4.78;3.00;;;;;;;19.86;55.64;100779.31;5042708;28;20739;-75
2022/07/25 03:47:08;;;;;;;5.75;3.10;;;;;;;19.85;56.10;100769.66;5055046;28;20071;-75
2022/07/25 03:49:34;;;;;;;5.00;3.03;;;;;;;19.75;55.95;100772.31;5063695;28;20492;-75
2022/07/25 03:52:02;;;;;;;7.47;2.78;;;;;;;19.69;55.92;100769.34;5066662;28;20546;-75
2022/07/25 03:54:29;;;;;;;7.20;3.10;;;;;;;19.53;56.64;100763.72;5066801;28;20389;-75
2022/07/25 03:56:56;;;;;;;6.05;3.05;;;;;;;19.43;56.56;100761.88;5068548;28;20393;-75
2022/07/25 03:59:22;;;;;;;4.78;3.10;;;;;;;19.33;57.23;100765.41;5065997;28;20044;-75
2022/07/25 04:01:50;;;;;;;6.30;3.38;;;;;;;19.09;57.60;100760.44;5066885;28;20049;-75
2022/07/25 04:04:17;;;;;;;6.45;3.08;;;;;;;19.10;57.25;100754.16;5068698;28;20048;-75
2022/07/25 04:06:44;;;;;;;5.15;3.30;;;;;;;18.94;57.19;100744.00;5061796;28;20060;-75
2022/07/25 04:09:11;;;;;;;4.78;3.15;;;;;;;18.85;58.44;100735.97;5073131;28;20672;-75
2022/07/25 04:11:39;;;;;;;8.30;3.58;;;;;;;18.75;59.54;100732.44;5067472;28;20040;-75
2022/07/25 04:14:06;;;;;;;9.40;3.20;;;;;;;18.71;59.71;100731.84;5064696;28;20090;-75
2022/07/25 04:16:32;;;;;;;9.10;3.17;;;;;;;18.91;59.72;100723.03;5067224;28;20094;-75
2022/07/25 04:18:58;;;;;;;4.50;3.08;;;;;;;18.87;57.93;100724.25;5066830;28;20048;-75
2022/07/25 04:21:25;;;;;;;4.70;2.78;;;;;;;19.02;56.69;100718.59;5068485;27;20487;-75
2022/07/25 04:23:51;;;;;;;3.80;2.55;;;;;;;19.27;55.31;100721.63;5081622;27;20129;-75
2022/07/25 04:26:18;;;;;;;4.80;3.28;;;;;;;19.85;53.34;100722.59;5072588;27;20105;-75
2022/07/25 04:28:47;;;;;;;4.85;2.80;;;;;;;20.50;51.62;100714.91;5066740;28;20385;-75
2022/07/25 04:31:13;;;;;;;4.63;3.17;;;;;;;20.82;50.72;100715.38;5066664;28;20528;-75
2022/07/25 04:33:41;;;;;;;5.85;2.97;;;;;;;20.45;52.82;100711.81;5067117;28;20047;-76
2022/07/25 04:36:08;;;;;;;9.57;3.10;;;;;;;20.98;50.43;100704.94;5073713;27;20044;-75
2022/07/25 04:38:35;;;;;;;6.97;3.28;;;;;;;21.00;50.55;100705.63;5070598;27;20114;-75
2022/07/25 04:41:03;;;;;;;6.63;3.22;;;;;;;21.21;49.76;100698.25;5066270;28;20048;-75
2022/07/25 04:43:30;;;;;;;6.53;3.13;;;;;;;21.26;49.40;100703.97;5069536;27;20047;-75
2022/07/25 04:45:58;;;;;;;5.68;3.00;;;;;;;21.48;49.51;100699.22;5066029;28;20040;-75
2022/07/25 04:48:24;;;;;;;4.18;2.50;;;;;;;21.44;49.99;100705.84;5069903;27;20154;-75
2022/07/25 04:50:51;;;;;;;4.57;3.10;;;;;;;20.76;50.90;100697.31;5072147;27;20049;-75
2022/07/25 04:53:17;;;;;;;7.60;3.00;;;;;;;21.15;50.73;100696.19;5059638;28;20476;-75
2022/07/25 04:55:44;;;;;;;5.68;3.08;;;;;;;21.30;50.00;100688.50;5056825;28;20044;-75
2022/07/25 04:58:10;;;;;;;4.65;3.25;;;;;;;21.51;49.90;100690.91;5054330;28;20049;-75
2022/07/25 05:00:37;;;;;;;4.63;3.08;;;;;;;21.47;50.27;100681.56;5058703;28;20261;-75
2022/07/25 05:03:05;;;;;;;12.68;3.20;;;;;;;21.32;50.70;100682.03;5057453;28;20927;-74
2022/07/25 05:05:31;;;;;;;6.47;3.22;;;;;;;21.58;49.82;100684.00;5065969;28;20045;-75
2022/07/25 05:07:59;;;;;;;5.63;3.10;;;;;;;21.76;49.84;100672.34;5066290;28;20044;-74
2022/07/25 05:10:26;;;;;;;5.28;3.42;;;;;;;21.79;49.70;100666.69;5065705;28;20166;-76
2022/07/25 05:12:52;;;;;;;10.98;3.63;;;;;;;22.02;49.59;100664.44;5056380;28;20094;-75
2022/07/25 05:15:19;;;;;;;6.07;3.22;;;;;;;21.32;50.80;100667.88;5066399;28;20047;-74
2022/07/25 05:17:45;;;;;;;5.05;3.47;;;;;;;21.62;50.22;100670.19;5051318;28;22111;-74
2022/07/25 05:20:13;;;;;;;7.13;3.38;;;;;;;22.17;49.98;100654.03;5063198;27;20048;-74
2022/07/25 05:22:40;;;;;;;9.82;4.00;;;;;;;22.29;49.13;100653.59;5054584;28;20194;-74
2022/07/25 05:25:08;;;;;;;6.55;3.60;;;;;;;22.11;49.82;100658.16;5078415;27;20044;-74
2022/07/25 05:27:34;;;;;;;9.30;3.58;;;;;;;22.03;50.59;100646.56;5064582;28;20044;-74
2022/07/25 05:30:01;;;;;;;6.68;3.40;;;;;;;22.53;49.89;100654.75;5069753;28;20113;-74
2022/07/25 05:32:27;;;;;;;4.88;3.28;;;;;;;22.71;48.59;100644.88;5082053;27;20474;-74
2022/07/25 05:34:53;;;;;;;4.60;3.92;;;;;;;22.78;48.52;100643.22;5069111;27;20097;-74
2022/07/25 05:37:21;;;;;;;6.90;3.38;;;;;;;23.66;46.77;100650.72;5063397;28;20079;-74
2022/07/25 05:39:47;;;;;;;4.88;3.63;;;;;;;23.17;47.03;100639.03;5055795;28;20041;-74
2022/07/25 05:42:14;;;;;;;7.72;3.92;;;;;;;23.15;47.66;100657.09;5067290;28;20488;-74
2022/07/25 05:44:40;;;;;;;12.50;3.92;;;;;;;23.21;47.51;100645.72;5068575;28;20089;-74
2022/07/25 05:47:09;;;;;;;7.47;3.85;;;;;;;24.35;45.17;100641.38;5066234;27;20106;-74
2022/07/25 05:49:35;;;;;;;6.45;3.80;;;;;;;23.93;46.16;100641.53;5076299;27;20094;-73
2022/07/25 05:52:01;;;;;;;7.88;4.25;;;;;;;23.68;46.33;100642.53;5068785;28;20109;-73
2022/07/25 05:54:29;;;;;;;6.75;3.42;;;;;;;23.97;46.32;100634.84;5081093;27;20046;-73
2022/07/25 05:56:55;;;;;;;6.43;3.67;;;;;;;24.33;45.17;100638.00;5060337;28;20041;-73
2022/07/25 05:59:22;;;;;;;6.65;3.70;;;;;;;24.05;46.00;100628.66;5068802;27;20102;-73
2022/07/25 06:01:48;;;;;;;6.50;3.80;;;;;;;24.57;45.23;100629.09;5081717;27;20047;-73
2022/07/25 06:04:15;;;;;;;6.38;4.22;;;;;;;24.59;44.12;100632.41;5083039;27;20089;-73
2022/07/25 06:06:41;;;;;;;6.53;3.95;;;;;;;24.70;44.32;100629.38;5074338;27;20040;-73
2022/07/25 06:09:07;;;;;;;8.88;3.85;;;;;;;25.36;43.14;100625.38;5075770;27;20640;-73
2022/07/25 06:11:35;;;;;;;6.10;3.90;;;;;;;25.79;42.04;100621.28;5083087;27;20044;-69
2022/07/25 06:14:01;;;;;;;6.57;3.83;;;;;;;26.53;40.94;100621.22;5071006;27;20044;-69
2022/07/25 06:16:28;;;;;;;7.13;4.03;;;;;;;26.09;41.04;100615.78;5084638;27;20043;-68
2022/07/25 06:18:54;;;;;;;5.25;3.70;;;;;;;26.47;41.16;100615.75;5070696;27;20052;-68
2022/07/25 06:21:20;;;;;;;6.72;4.25;;;;;;;25.68;41.28;100625.22;5078757;27;20478;-68
2022/07/25 06:23:47;;;;;;;5.82;4.10;;;;;;;25.29;42.21;100624.44;5084827;27;20052;-69
2022/07/25 06:26:13;;;;;;;4.97;3.70;;;;;;;24.75;43.94;100615.44;5067166;28;20060;-70
2022/07/25 06:28:41;;;;;;;7.30;3.97;;;;;;;24.92;43.54;100609.03;5053627;28;20060;-69
2022/07/25 06:31:07;;;;;;;5.88;4.03;;;;;;;25.48;42.84;100605.19;5064133;27;20048;-69
2022/07/25 06:33:33;;;;;;;6.35;3.53;;;;;;;26.34;42.26;100597.59;5066797;28;20064;-69
2022/07/25 06:36:00;;;;;;;5.55;3.55;;;;;;;26.24;40.92;100594.31;5048538;28;20044;-69
2022/07/25 06:38:26;;;;;;;13.35;4.18;;;;;;;25.69;42.04;100597.31;5048462;28;20086;-69
2022/07/25 06:40:52;;;;;;;5.20;3.90;;;;;;;26.14;41.82;100586.50;5072361;27;20110;-69
2022/07/25 06:43:19;;;;;;;14.80;4.28;;;;;;;26.45;40.86;100588.25;5083839;27;20048;-69
2022/07/25 06:45:47;;;;;;;9.65;4.00;;;;;;;26.87;40.26;100584.88;5051053;28;20057;-69
2022/07/25 06:48:13;;;;;;;5.05;4.10;;;;;;;27.83;38.92;100587.16;5048736;28;20060;-69
2022/07/25 06:50:39;;;;;;;4.63;3.63;;;;;;;28.43;36.92;100570.41;5062614;28;20041;-70
2022/07/25 06:53:06;;;;;;;5.03;3.85;;;;;;;27.79;37.34;100580.50;5075202;27;20094;-70
2022/07/25 06:55:32;;;;;;;8.68;4.88;;;;;;;26.72;39.47;100576.78;5070220;27;20114;-70
2022/07/25 06:57:59;;;;;;;9.80;4.43;;;;;;;26.60;39.87;100571.09;5067589;27;20062;-70
2022/07/25 07:00:25;;;;;;;11.18;4.18;;;;;;;26.77;39.85;100579.78;5062869;27;20040;-70
2022/07/25 07:02:55;;;;;;;5.93;4.30;;;;;;;27.89;39.23;100571.06;5074088;27;20051;-70
2022/07/25 07:05:22;;;;;;;7.38;4.30;;;;;;;28.64;36.80;100572.19;5069486;27;20048;-70
2022/07/25 07:07:49;;;;;;;7.72;4.82;;;;;;;29.15;36.16;100573.44;5066749;27;20082;-70
2022/07/25 07:10:16;;;;;;;7.30;4.65;;;;;;;28.90;36.71;100562.34;5079469;27;20450;-70
2022/07/25 07:12:42;;;;;;;5.60;4.00;;;;;;;28.98;36.17;100561.34;5065085;27;20503;-70
2022/07/25 07:15:09;;;;;;;6.22;4.60;;;;;;;28.20;36.95;100559.06;5077405;27;20095;-70
2022/07/25 07:17:35;;;;;;;7.55;4.40;;;;;;;28.03;37.95;100553.94;5064441;28;20504;-70
2022/07/25 07:20:04;;;;;;;5.80;3.95;;;;;;;28.64;37.46;100556.00;5063215;28;20056;-70
2022/07/25 07:22:31;;;;;;;10.40;4.40;;;;;;;29.38;36.13;100548.78;5075095;27;20040;-70
2022/07/25 07:24:57;;;;;;;8.43;4.53;;;;;;;29.70;35.07;100549.88;5061139;27;20100;-70
2022/07/25 07:27:23;;;;;;;6.50;4.60;;;;;;;29.18;36.47;100543.34;5071364;27;20093;-70
2022/07/25 07:29:50;;;;;;;10.68;4.80;;;;;;;28.83;36.36;100550.69;5068390;28;20471;-69
2022/07/25 07:32:17;;;;;;;8.82;4.57;;;;;;;28.32;36.99;100538.59;5066484;28;20044;-70
2022/07/25 07:34:43;;;;;;;11.52;4.53;;;;;;;28.95;37.17;100540.16;5067181;28;20049;-69
2022/07/25 07:37:11;;;;;;;5.85;4.43;;;;;;;29.24;36.75;100529.00;5065315;28;20106;-69
2022/07/25 07:39:37;;;;;;;6.18;5.00;;;;;;;29.71;37.14;100533.41;5064303;28;20068;-69
2022/07/25 07:42:04;;;;;;;7.25;4.63;;;;;;;30.53;35.30;100530.19;5066727;28;20044;-69
2022/07/25 07:44:30;;;;;;;5.88;4.60;;;;;;;30.25;34.57;100532.34;5060059;28;20049;-69
2022/07/25 07:47:00;;;;;;;6.50;4.90;;;;;;;29.89;35.40;100525.56;5059591;28;20040;-69
2022/07/25 07:49:26;;;;;;;16.48;5.18;;;;;;;30.13;34.50;100520.50;5064580;28;20143;-70
2022/07/25 07:51:53;;;;;;;7.97;5.07;;;;;;;30.01;35.39;100511.41;5066956;28;20048;-70
2022/07/25 07:57:04;;;;;;;9.15;4.82;;;;;;;30.30;35.27;100508.22;5068478;27;20557;-70
2022/07/25 07:59:30;;;;;;;26.88;5.78;;;;;;;31.01;35.71;100514.38;5068165;28;20094;-69
2022/07/25 08:01:57;;;;;;;7.50;5.05;;;;;;;30.92;33.88;100507.53;5067813;28;20529;-69
2022/07/25 08:04:23;;;;;;;11.30;5.03;;;;;;;30.80;34.61;100510.09;5073920;27;20095;-69
2022/07/25 08:06:49;;;;;;;10.25;4.93;;;;;;;31.04;33.77;100508.56;5065229;28;20086;-69
2022/07/25 08:09:16;;;;;;;10.00;5.15;;;;;;;31.74;33.72;100501.16;5086235;28;20036;-69
2022/07/25 08:11:43;;;;;;;6.88;4.70;;;;;;;31.05;33.92;100503.94;5088172;28;20040;-69
2022/07/25 08:14:10;;;;;;;14.50;5.07;;;;;;;31.25;33.62;100491.09;5087714;28;20040;-69
2022/07/25 08:16:36;;;;;;;7.75;5.25;;;;;;;31.83;32.65;100489.78;5086030;28;20048;-69
2022/07/25 08:19:03;;;;;;;9.57;6.05;;;;;;;30.64;34.16;100488.94;5087704;28;20109;-70
2022/07/25 08:21:29;;;;;;;10.07;4.85;;;;;;;30.91;35.02;100495.88;5072123;28;20484;-70
2022/07/25 08:23:55;;;;;;;7.35;5.30;;;;;;;31.22;34.50;100488.84;5055275;28;20408;-69
2022/07/25 08:26:22;;;;;;;7.63;5.07;;;;;;;32.03;33.17;100489.59;5068667;28;20041;-69
2022/07/25 08:28:49;;;;;;;8.68;5.43;;;;;;;32.70;32.44;100491.34;5046493;28;20049;-69
2022/07/25 08:31:16;;;;;;;5.78;4.88;;;;;;;32.46;32.22;100486.81;5047129;28;20065;-70
2022/07/25 08:33:42;;;;;;;6.80;5.00;;;;;;;32.66;31.59;100490.16;5047921;28;20053;-69
2022/07/25 08:36:09;;;;;;;8.88;5.07;;;;;;;31.62;32.41;100484.78;5046585;28;20112;-69
2022/07/25 08:38:36;;;;;;;13.88;5.80;;;;;;;31.85;34.54;100482.25;5063349;28;20052;-69
2022/07/25 08:41:03;;;;;;;6.93;5.65;;;;;;;32.04;32.12;100468.72;5067010;28;20044;-70
2022/07/25 08:43:31;;;;;;;9.32;5.70;;;;;;;32.12;31.68;100471.16;5067342;28;20037;-70
2022/07/25 08:46:01;;;;;;;8.07;5.50;;;;;;;32.08;32.00;100472.66;5065715;28;20045;-70
2022/07/25 08:48:28;;;;;;;7.30;5.18;;;;;;;32.27;31.67;100474.31;5066737;28;20385;-69
2022/07/25 08:50:56;;;;;;;11.20;5.88;;;;;;;32.23;33.56;100464.97;5066081;28;20139;-70
2022/07/25 08:53:24;;;;;;;17.65;6.93;;;;;;;33.52;31.37;100451.63;5063632;28;20044;-70
2022/07/25 08:55:51;;;;;;;7.40;5.32;;;;;;;33.39;29.79;100451.03;5063461;28;20045;-70
2022/07/25 08:58:18;;;;;;;6.22;4.93;;;;;;;33.22;29.82;100445.47;5051613;28;20053;-70
2022/07/25 09:00:45;;;;;;;19.55;6.32;;;;;;;33.74;29.34;100447.28;5063412;28;20044;-69
2022/07/25 09:03:13;;;;;;;6.32;5.40;;;;;;;33.98;28.84;100439.09;5066752;28;20044;-70
2022/07/25 09:05:40;;;;;;;6.68;5.55;;;;;;;33.78;29.03;100438.66;5064918;28;20075;-69
2022/07/25 09:08:09;;;;;;;7.60;5.65;;;;;;;33.92;29.00;100423.75;5075747;27;20181;-70
2022/07/25 09:10:36;;;;;;;6.03;4.88;;;;;;;34.38;28.94;100426.34;5086203;27;20097;-70
2022/07/25 09:13:06;;;;;;;8.18;5.53;;;;;;;34.98;28.55;100420.41;5085825;27;20044;-70
2022/07/25 09:15:34;;;;;;;10.80;5.70;;;;;;;34.35;28.00;100423.31;5075507;27;20044;-70
2022/07/25 09:18:04;;;;;;;12.20;5.43;;;;;;;34.11;28.34;100414.38;5066417;28;20103;-70
2022/07/25 09:20:40;;;;;;;8.13;5.57;;;;;;;34.65;28.85;100410.31;5066001;28;20147;-71
2022/07/25 09:23:07;;;;;;;12.40;5.53;;;;;;;34.91;28.55;100401.50;5066057;28;20136;-70
2022/07/25 09:25:36;;;;;;;11.98;5.65;;;;;;;35.00;28.43;100399.19;5071096;28;20503;-70
2022/07/25 09:28:17;;;;;;;9.55;5.53;;;;;;;35.15;27.84;100389.41;5071327;27;20460;-70
2022/07/25 09:30:54;;;;;;;9.57;5.78;;;;;;;34.92;27.90;100386.00;5083511;27;20052;-70
2022/07/25 09:33:21;;;;;;;8.60;5.63;;;;;;;34.87;27.48;100367.66;5084001;27;20412;-70
2022/07/25 09:35:50;;;;;;;10.70;5.82;;;;;;;34.79;27.46;100380.84;5084119;27;20101;-70
2022/07/25 09:38:17;;;;;;;8.02;5.38;;;;;;;34.78;27.88;100366.41;5071146;27;20097;-70
2022/07/25 09:40:54;;;;;;;10.95;6.25;;;;;;;34.89;28.27;100392.75;5064641;28;20580;-70
2022/07/25 09:43:20;;;;;;;7.47;6.20;;;;;;;34.88;27.23;100377.50;5074057;28;20066;-70
2022/07/25 09:45:49;;;;;;;7.05;5.45;;;;;;;35.43;27.01;100369.38;5084239;28;20052;-71
2022/07/25 09:48:18;;;;;;;9.13;5.93;;;;;;;35.71;26.02;100354.78;5071761;28;20040;-70
2022/07/25 09:50:44;;;;;;;5.90;5.32;;;;;;;35.20;26.56;100355.94;5065206;28;20048;-70
2022/07/25 09:53:12;;;;;;;6.53;5.60;;;;;;;34.05;27.68;100366.34;5064401;28;20114;-70
2022/07/25 09:55:40;;;;;;;7.03;6.03;;;;;;;33.93;28.02;100358.19;5067362;28;20052;-70
2022/07/25 09:58:06;;;;;;;8.48;6.05;;;;;;;34.88;27.61;100347.53;5065115;28;20315;-70
2022/07/25 10:00:33;;;;;;;7.20;5.30;;;;;;;34.85;27.25;100341.75;5061978;28;20534;-71
2022/07/25 10:03:16;;;;;;;13.45;5.65;;;;;;;35.34;27.39;100345.50;5055926;28;20044;-70
2022/07/25 10:05:55;;;;;;;11.48;5.50;;;;;;;35.27;26.29;100348.41;5068015;27;20048;-70
2022/07/25 10:08:24;;;;;;;7.18;5.80;;;;;;;35.54;26.63;100351.25;5069001;27;20049;-69
2022/07/25 10:10:50;;;;;;;13.60;6.05;;;;;;;35.01;26.43;100340.91;5065320;28;20101;-70
2022/07/25 10:13:29;;;;;;;9.65;5.97;;;;;;;35.53;26.30;100338.69;5083831;28;20097;-70
2022/07/25 10:15:55;;;;;;;10.88;5.65;;;;;;;35.66;26.17;100346.56;5078916;28;20465;-70
2022/07/25 10:18:23;;;;;;;8.27;5.65;;;;;;;36.02;26.45;100340.44;5034601;28;20118;-70
2022/07/25 10:20:52;;;;;;;9.70;5.88;;;;;;;36.22;25.29;100326.22;5044574;28;20098;-70
2022/07/25 10:23:20;;;;;;;9.57;5.55;;;;;;;36.08;25.49;100339.44;5043437;28;20099;-70
2022/07/25 10:25:59;;;;;;;6.38;5.43;;;;;;;36.52;25.34;100329.25;5062237;28;20045;-70
2022/07/25 10:28:36;;;;;;;9.75;5.82;;;;;;;36.57;25.42;100314.84;5078496;27;20218;-70
2022/07/25 10:31:03;;;;;;;10.90;5.80;;;;;;;36.68;25.07;100313.84;5082440;27;20089;-70
2022/07/25 10:33:29;;;;;;;8.25;6.38;;;;;;;36.30;25.73;100316.75;5085705;27;20048;-69
2022/07/25 10:36:05;;;;;;;8.00;5.72;;;;;;;36.40;25.70;100304.00;5075733;27;20044;-70
2022/07/25 10:38:32;;;;;;;7.90;5.70;;;;;;;36.44;25.45;100313.31;5077865;27;20044;-70
2022/07/25 10:41:02;;;;;;;9.30;5.88;;;;;;;36.31;25.82;100310.19;5084688;27;20098;-70
2022/07/25 10:43:28;;;;;;;9.48;6.13;;;;;;;35.45;25.97;100295.50;5086574;27;20040;-70
2022/07/25 10:45:58;;;;;;;9.00;6.00;;;;;;;36.15;25.58;100292.00;5075779;27;20056;-70
2022/07/25 10:48:27;;;;;;;7.68;5.70;;;;;;;36.32;25.56;100288.13;5064958;28;20040;-70
2022/07/25 10:50:57;;;;;;;6.70;5.43;;;;;;;36.19;25.41;100288.50;5063209;28;20495;-70
2022/07/25 10:53:31;;;;;;;7.13;5.32;;;;;;;35.91;25.00;100296.94;5065867;28;20049;-69
2022/07/25 10:55:58;;;;;;;7.90;5.55;;;;;;;35.79;25.24;100298.97;5065113;28;20040;-70
2022/07/25 10:58:26;;;;;;;8.95;6.05;;;;;;;35.39;25.97;100296.53;5055739;28;20049;-70
2022/07/25 11:00:53;;;;;;;7.90;6.03;;;;;;;35.78;26.74;100280.94;5072048;27;20086;-69
2022/07/25 11:03:20;;;;;;;8.15;6.72;;;;;;;36.49;25.67;100261.50;5083130;27;20116;-69
2022/07/25 11:05:50;;;;;;;8.02;6.13;;;;;;;36.75;25.43;100264.44;5072378;27;20068;-70
2022/07/25 11:08:17;;;;;;;9.25;6.30;;;;;;;36.81;25.44;100269.69;5067237;28;20044;-70
2022/07/25 11:10:51;;;;;;;7.10;5.60;;;;;;;36.61;24.60;100263.25;5068001;28;20048;-69
2022/07/25 11:13:17;;;;;;;7.85;6.28;;;;;;;36.69;25.84;100260.03;5059842;28;20123;-69
2022/07/25 11:15:45;;;;;;;8.40;5.90;;;;;;;36.02;26.40;100250.41;5062489;28;20618;-69
2022/07/25 11:18:11;;;;;;;7.93;6.30;;;;;;;36.29;25.57;100261.31;5067214;28;20049;-70
2022/07/25 11:20:38;;;;;;;9.30;6.10;;;;;;;36.30;25.53;100245.75;5068270;28;20136;-69
2022/07/25 11:23:04;;;;;;;7.95;6.00;;;;;;;36.37;24.92;100241.72;5074434;27;20113;-70
2022/07/25 11:25:32;;;;;;;7.55;5.88;;;;;;;36.31;25.54;100248.22;5074320;27;20053;-69
2022/07/25 11:27:59;;;;;;;13.50;6.70;;;;;;;36.51;26.06;100242.13;5069939;28;20049;-69